Airfield :
LOGIN :

Register | Disclaimer

   EN    FR    IT 

 










Legend :    VFR   Marginal VFR   IFR   Intensive IFR   Very Intensive IFR
Visi :
Ceiling :
>= 8 km
>= 3000ft
5 to 8 km
1000 to 3000 ft
1500m to 5 km
500 to 1000 ft
800 to 1500m
200 to 500 ft
< 800m
< 200 ft
Symbols :   Thunderstorms  Fog  Heavy snow  Heavy precipitations  Wind > 20 kt
SIGMETs :     Misc.  Thunderstorms  Icing  Turbulence  Mountain Waves  Volcanic Ashes






- Airport Elevation : 238 ft
- IATA code : FAB


EGLF - Farnborough

CURRENT METAR :
  • 090120Z AUTO 21002KT 3700 HZ NCD 06/05 Q1023

EXPIRED METARs :
  • 090050Z AUTO 20003KT 4400 HZ NCD 07/06 Q1024
  • 090020Z AUTO 20003KT 5000 HZ NCD 07/05 Q1024
  • 082350Z AUTO VRB02KT 6000 NCD 08/05 Q1024
  • 082320Z AUTO 20003KT 6000 NCD 08/05 Q1024
  • 082250Z AUTO 18002KT 7000 NCD 09/06 Q1024
  • 082220Z AUTO 21003KT 7000 NCD 09/07 Q1024

Expired Forecast.
ATIS : +44 09063 800 400 (*282)



MET'MAP, your aeronautical weather chart ! - Copyright ORBIFLY December 2007 - Disclaimer

ORBIFLY MET'MAP TEAM :

Programming & Development : Alexandra Zaïnal
Concept & original design : Baudouin d'Aumeries
Assistance for programming : Marc-Olivier Méhu
Technical & hardware support : Manuel Goepfert

Contact : metmap@orbifly.com




SOURCES & CREDITS :

   NOAA